sensor_id;sensor_type;location;lat;lon;timestamp;temperature;humidity
10964;DHT22;5534;48.784;9.190;2023-04-06T00:01:50;7.00;99.90
10964;DHT22;5534;48.784;9.190;2023-04-06T00:04:16;6.90;99.90
10964;DHT22;5534;48.784;9.190;2023-04-06T00:06:42;6.90;99.90
10964;DHT22;5534;48.784;9.190;2023-04-06T00:09:07;6.90;99.90
10964;DHT22;5534;48.784;9.190;2023-04-06T00:11:34;6.90;99.90
10964;DHT22;5534;48.784;9.190;2023-04-06T00:13:59;6.90;99.90
10964;DHT22;5534;48.784;9.190;2023-04-06T00:16:26;6.90;99.90
10964;DHT22;5534;48.784;9.190;2023-04-06T00:18:51;6.90;99.90
10964;DHT22;5534;48.784;9.190;2023-04-06T00:21:17;6.00;99.90
10964;DHT22;5534;48.784;9.190;2023-04-06T00:23:43;6.30;99.90
10964;DHT22;5534;48.784;9.190;2023-04-06T00:26:09;6.50;99.90
10964;DHT22;5534;48.784;9.190;2023-04-06T00:28:37;6.40;99.90
10964;DHT22;5534;48.784;9.190;2023-04-06T00:31:03;6.40;99.90
10964;DHT22;5534;48.784;9.190;2023-04-06T00:33:29;6.60;99.90
10964;DHT22;5534;48.784;9.190;2023-04-06T00:35:58;6.70;99.90
10964;DHT22;5534;48.784;9.190;2023-04-06T00:38:23;6.70;99.90
10964;DHT22;5534;48.784;9.190;2023-04-06T00:40:52;6.80;99.90
10964;DHT22;5534;48.784;9.190;2023-04-06T00:43:18;6.60;99.90
10964;DHT22;5534;48.784;9.190;2023-04-06T00:45:44;6.60;99.90
10964;DHT22;5534;48.784;9.190;2023-04-06T00:48:10;6.60;99.90
10964;DHT22;5534;48.784;9.190;2023-04-06T00:50:36;6.60;99.90
10964;DHT22;5534;48.784;9.190;2023-04-06T00:53:02;6.60;99.90
10964;DHT22;5534;48.784;9.190;2023-04-06T00:55:28;6.70;99.90
10964;DHT22;5534;48.784;9.190;2023-04-06T00:57:54;6.60;99.90
10964;DHT22;5534;48.784;9.190;2023-04-06T01:00:22;6.70;99.90
10964;DHT22;5534;48.784;9.190;2023-04-06T01:02:48;6.70;99.90
10964;DHT22;5534;48.784;9.190;2023-04-06T01:05:14;6.70;99.90
10964;DHT22;5534;48.784;9.190;2023-04-06T01:07:40;6.70;99.90
10964;DHT22;5534;48.784;9.190;2023-04-06T01:10:06;6.60;99.90
10964;DHT22;5534;48.784;9.190;2023-04-06T01:12:32;6.60;99.90
10964;DHT22;5534;48.784;9.190;2023-04-06T01:14:58;6.60;99.90
10964;DHT22;5534;48.784;9.190;2023-04-06T01:17:23;6.60;99.90
10964;DHT22;5534;48.784;9.190;2023-04-06T01:19:49;6.60;99.90
10964;DHT22;5534;48.784;9.190;2023-04-06T01:22:17;6.70;99.90
10964;DHT22;5534;48.784;9.190;2023-04-06T01:24:42;6.70;99.90
10964;DHT22;5534;48.784;9.190;2023-04-06T01:27:09;6.60;99.90
10964;DHT22;5534;48.784;9.190;2023-04-06T01:29:35;6.60;99.90
10964;DHT22;5534;48.784;9.190;2023-04-06T01:32:01;6.60;99.90
10964;DHT22;5534;48.784;9.190;2023-04-06T01:34:27;6.60;99.90
10964;DHT22;5534;48.784;9.190;2023-04-06T01:36:53;6.60;99.90
10964;DHT22;5534;48.784;9.190;2023-04-06T01:39:19;6.60;99.90
10964;DHT22;5534;48.784;9.190;2023-04-06T01:41:45;6.50;99.90
10964;DHT22;5534;48.784;9.190;2023-04-06T01:44:15;6.50;99.90
10964;DHT22;5534;48.784;9.190;2023-04-06T01:46:41;6.60;99.90
10964;DHT22;5534;48.784;9.190;2023-04-06T01:49:07;6.50;99.90
10964;DHT22;5534;48.784;9.190;2023-04-06T01:51:33;6.50;99.90
10964;DHT22;5534;48.784;9.190;2023-04-06T01:53:59;6.50;99.90
10964;DHT22;5534;48.784;9.190;2023-04-06T01:56:24;6.60;99.90
10964;DHT22;5534;48.784;9.190;2023-04-06T01:58:51;6.50;99.90
10964;DHT22;5534;48.784;9.190;2023-04-06T02:01:17;6.50;99.90
10964;DHT22;5534;48.784;9.190;2023-04-06T02:03:43;6.40;99.90
10964;DHT22;5534;48.784;9.190;2023-04-06T02:06:11;6.40;99.90
10964;DHT22;5534;48.784;9.190;2023-04-06T02:08:37;6.40;99.90
10964;DHT22;5534;48.784;9.190;2023-04-06T02:11:03;6.40;99.90
10964;DHT22;5534;48.784;9.190;2023-04-06T02:13:29;6.40;99.90
10964;DHT22;5534;48.784;9.190;2023-04-06T02:15:55;6.30;99.90
10964;DHT22;5534;48.784;9.190;2023-04-06T02:18:21;6.20;99.90
10964;DHT22;5534;48.784;9.190;2023-04-06T02:20:47;6.10;99.90
10964;DHT22;5534;48.784;9.190;2023-04-06T02:23:13;6.20;99.90
10964;DHT22;5534;48.784;9.190;2023-04-06T02:25:39;6.20;99.90
10964;DHT22;5534;48.784;9.190;2023-04-06T02:28:05;6.20;99.90
10964;DHT22;5534;48.784;9.190;2023-04-06T02:30:31;6.20;99.90
10964;DHT22;5534;48.784;9.190;2023-04-06T02:32:59;6.00;99.90
10964;DHT22;5534;48.784;9.190;2023-04-06T02:35:27;5.90;99.90
10964;DHT22;5534;48.784;9.190;2023-04-06T02:37:52;5.80;99.90
10964;DHT22;5534;48.784;9.190;2023-04-06T02:40:18;5.90;99.90
10964;DHT22;5534;48.784;9.190;2023-04-06T02:42:44;5.90;99.90
10964;DHT22;5534;48.784;9.190;2023-04-06T02:45:10;5.80;99.90
10964;DHT22;5534;48.784;9.190;2023-04-06T02:47:36;5.80;99.90
10964;DHT22;5534;48.784;9.190;2023-04-06T02:50:02;5.70;99.90
10964;DHT22;5534;48.784;9.190;2023-04-06T02:52:27;5.60;99.90
10964;DHT22;5534;48.784;9.190;2023-04-06T02:54:53;5.50;99.90
10964;DHT22;5534;48.784;9.190;2023-04-06T02:57:19;5.60;99.90
10964;DHT22;5534;48.784;9.190;2023-04-06T02:59:45;5.60;99.90
10964;DHT22;5534;48.784;9.190;2023-04-06T03:02:10;5.60;99.90
10964;DHT22;5534;48.784;9.190;2023-04-06T03:04:36;5.40;99.90
10964;DHT22;5534;48.784;9.190;2023-04-06T03:07:02;5.30;99.90
10964;DHT22;5534;48.784;9.190;2023-04-06T03:09:28;5.40;99.90
10964;DHT22;5534;48.784;9.190;2023-04-06T03:11:53;5.50;99.90
10964;DHT22;5534;48.784;9.190;2023-04-06T03:14:19;5.60;99.90
10964;DHT22;5534;48.784;9.190;2023-04-06T03:16:50;5.50;99.90
10964;DHT22;5534;48.784;9.190;2023-04-06T03:19:15;5.40;99.90
10964;DHT22;5534;48.784;9.190;2023-04-06T03:21:42;5.20;99.90
10964;DHT22;5534;48.784;9.190;2023-04-06T03:24:08;5.10;99.90
10964;DHT22;5534;48.784;9.190;2023-04-06T03:26:33;5.40;99.90
10964;DHT22;5534;48.784;9.190;2023-04-06T03:29:00;5.50;99.90
10964;DHT22;5534;48.784;9.190;2023-04-06T03:31:26;5.40;99.90
10964;DHT22;5534;48.784;9.190;2023-04-06T03:33:54;5.60;99.90
10964;DHT22;5534;48.784;9.190;2023-04-06T03:36:20;5.60;99.90
10964;DHT22;5534;48.784;9.190;2023-04-06T03:38:47;5.50;99.90
10964;DHT22;5534;48.784;9.190;2023-04-06T03:41:13;5.60;99.90
10964;DHT22;5534;48.784;9.190;2023-04-06T03:43:38;5.40;99.90
10964;DHT22;5534;48.784;9.190;2023-04-06T03:46:04;5.40;99.90
10964;DHT22;5534;48.784;9.190;2023-04-06T03:48:30;5.10;99.90
10964;DHT22;5534;48.784;9.190;2023-04-06T03:50:56;5.10;99.90
10964;DHT22;5534;48.784;9.190;2023-04-06T03:53:21;5.30;99.90
10964;DHT22;5534;48.784;9.190;2023-04-06T03:55:47;5.50;99.90
10964;DHT22;5534;48.784;9.190;2023-04-06T03:58:13;5.50;99.90
10964;DHT22;5534;48.784;9.190;2023-04-06T04:00:39;5.60;99.90
10964;DHT22;5534;48.784;9.190;2023-04-06T04:03:05;5.60;99.90
10964;DHT22;5534;48.784;9.190;2023-04-06T04:05:30;5.60;99.90
10964;DHT22;5534;48.784;9.190;2023-04-06T04:07:56;5.30;99.90
10964;DHT22;5534;48.784;9.190;2023-04-06T04:10:22;5.10;99.90
10964;DHT22;5534;48.784;9.190;2023-04-06T04:12:48;5.40;99.90
10964;DHT22;5534;48.784;9.190;2023-04-06T04:15:13;5.50;99.90
10964;DHT22;5534;48.784;9.190;2023-04-06T04:17:39;5.50;99.90
10964;DHT22;5534;48.784;9.190;2023-04-06T04:20:06;5.50;99.90
10964;DHT22;5534;48.784;9.190;2023-04-06T04:22:32;5.50;99.90
10964;DHT22;5534;48.784;9.190;2023-04-06T04:24:58;5.30;99.90
10964;DHT22;5534;48.784;9.190;2023-04-06T04:27:23;4.90;99.90
10964;DHT22;5534;48.784;9.190;2023-04-06T04:29:50;4.80;99.90
10964;DHT22;5534;48.784;9.190;2023-04-06T04:32:15;5.20;99.90
10964;DHT22;5534;48.784;9.190;2023-04-06T04:34:42;5.30;99.90
10964;DHT22;5534;48.784;9.190;2023-04-06T04:37:07;5.40;99.90
10964;DHT22;5534;48.784;9.190;2023-04-06T04:39:33;5.30;99.90
10964;DHT22;5534;48.784;9.190;2023-04-06T04:41:59;5.20;99.90
10964;DHT22;5534;48.784;9.190;2023-04-06T04:44:25;5.10;99.90
10964;DHT22;5534;48.784;9.190;2023-04-06T04:46:55;5.20;99.90
10964;DHT22;5534;48.784;9.190;2023-04-06T04:49:22;5.20;99.90
10964;DHT22;5534;48.784;9.190;2023-04-06T04:51:48;5.10;99.90
10964;DHT22;5534;48.784;9.190;2023-04-06T04:54:13;5.00;99.90
10964;DHT22;5534;48.784;9.190;2023-04-06T04:56:39;5.20;99.90
10964;DHT22;5534;48.784;9.190;2023-04-06T04:59:05;5.30;99.90
10964;DHT22;5534;48.784;9.190;2023-04-06T05:01:31;5.40;99.90
10964;DHT22;5534;48.784;9.190;2023-04-06T05:03:56;5.50;99.90
10964;DHT22;5534;48.784;9.190;2023-04-06T05:06:22;5.30;99.90
10964;DHT22;5534;48.784;9.190;2023-04-06T05:08:48;5.30;99.90
10964;DHT22;5534;48.784;9.190;2023-04-06T05:11:15;5.40;99.90
10964;DHT22;5534;48.784;9.190;2023-04-06T05:13:41;5.10;99.90
10964;DHT22;5534;48.784;9.190;2023-04-06T05:16:07;5.20;99.90
10964;DHT22;5534;48.784;9.190;2023-04-06T05:18:33;5.30;99.90
10964;DHT22;5534;48.784;9.190;2023-04-06T05:20:59;5.50;99.90
10964;DHT22;5534;48.784;9.190;2023-04-06T05:23:25;5.40;99.90
10964;DHT22;5534;48.784;9.190;2023-04-06T05:25:50;5.60;99.90
10964;DHT22;5534;48.784;9.190;2023-04-06T05:28:16;5.50;99.90
10964;DHT22;5534;48.784;9.190;2023-04-06T05:30:43;5.50;99.90
10964;DHT22;5534;48.784;9.190;2023-04-06T05:33:10;5.50;99.90
10964;DHT22;5534;48.784;9.190;2023-04-06T05:35:36;5.50;99.90
10964;DHT22;5534;48.784;9.190;2023-04-06T05:38:02;5.50;99.90
10964;DHT22;5534;48.784;9.190;2023-04-06T05:40:27;5.40;99.90
10964;DHT22;5534;48.784;9.190;2023-04-06T05:42:53;5.30;99.90
10964;DHT22;5534;48.784;9.190;2023-04-06T05:45:19;5.20;99.90
10964;DHT22;5534;48.784;9.190;2023-04-06T05:47:46;5.30;99.90
10964;DHT22;5534;48.784;9.190;2023-04-06T05:50:13;5.30;99.90
10964;DHT22;5534;48.784;9.190;2023-04-06T05:52:39;5.30;99.90
10964;DHT22;5534;48.784;9.190;2023-04-06T05:55:09;5.30;99.90
10964;DHT22;5534;48.784;9.190;2023-04-06T05:57:35;5.40;99.90
10964;DHT22;5534;48.784;9.190;2023-04-06T06:00:01;5.40;99.90
10964;DHT22;5534;48.784;9.190;2023-04-06T06:02:31;5.50;99.90
10964;DHT22;5534;48.784;9.190;2023-04-06T06:04:57;5.60;99.90
10964;DHT22;5534;48.784;9.190;2023-04-06T06:07:23;5.60;99.90
10964;DHT22;5534;48.784;9.190;2023-04-06T06:09:49;5.60;99.90
10964;DHT22;5534;48.784;9.190;2023-04-06T06:12:15;5.60;99.90
10964;DHT22;5534;48.784;9.190;2023-04-06T06:14:41;5.70;99.90
10964;DHT22;5534;48.784;9.190;2023-04-06T06:17:07;5.80;99.90
10964;DHT22;5534;48.784;9.190;2023-04-06T06:19:33;6.00;99.90
10964;DHT22;5534;48.784;9.190;2023-04-06T06:21:59;6.00;99.90
10964;DHT22;5534;48.784;9.190;2023-04-06T06:24:28;6.00;99.90
10964;DHT22;5534;48.784;9.190;2023-04-06T06:26:53;6.00;99.90
10964;DHT22;5534;48.784;9.190;2023-04-06T06:29:19;5.90;99.90
10964;DHT22;5534;48.784;9.190;2023-04-06T06:31:45;5.90;99.90
10964;DHT22;5534;48.784;9.190;2023-04-06T06:34:11;5.90;99.90
10964;DHT22;5534;48.784;9.190;2023-04-06T06:36:41;5.80;99.90
10964;DHT22;5534;48.784;9.190;2023-04-06T06:39:07;5.90;99.90
10964;DHT22;5534;48.784;9.190;2023-04-06T06:41:32;5.90;99.90
10964;DHT22;5534;48.784;9.190;2023-04-06T06:43:58;6.00;99.90
10964;DHT22;5534;48.784;9.190;2023-04-06T06:46:24;5.90;99.90
10964;DHT22;5534;48.784;9.190;2023-04-06T06:48:50;6.10;99.90
10964;DHT22;5534;48.784;9.190;2023-04-06T06:51:17;6.00;99.90
10964;DHT22;5534;48.784;9.190;2023-04-06T06:53:44;6.10;99.90
10964;DHT22;5534;48.784;9.190;2023-04-06T06:56:10;6.10;99.90
10964;DHT22;5534;48.784;9.190;2023-04-06T06:58:35;6.10;99.90
10964;DHT22;5534;48.784;9.190;2023-04-06T07:01:01;6.20;99.90
10964;DHT22;5534;48.784;9.190;2023-04-06T07:03:27;6.20;99.90
10964;DHT22;5534;48.784;9.190;2023-04-06T07:05:53;6.20;99.90
10964;DHT22;5534;48.784;9.190;2023-04-06T07:08:21;6.30;99.90
10964;DHT22;5534;48.784;9.190;2023-04-06T07:10:47;6.40;99.90
10964;DHT22;5534;48.784;9.190;2023-04-06T07:13:14;6.50;99.90
10964;DHT22;5534;48.784;9.190;2023-04-06T07:15:46;6.50;99.90
10964;DHT22;5534;48.784;9.190;2023-04-06T07:18:11;6.60;99.90
10964;DHT22;5534;48.784;9.190;2023-04-06T07:20:37;6.80;99.90
10964;DHT22;5534;48.784;9.190;2023-04-06T07:23:04;6.90;99.90
10964;DHT22;5534;48.784;9.190;2023-04-06T07:25:31;6.90;99.90
10964;DHT22;5534;48.784;9.190;2023-04-06T07:27:57;7.00;99.90
10964;DHT22;5534;48.784;9.190;2023-04-06T07:30:23;7.10;99.90
10964;DHT22;5534;48.784;9.190;2023-04-06T07:32:51;7.10;99.90
10964;DHT22;5534;48.784;9.190;2023-04-06T07:35:17;7.20;99.90
10964;DHT22;5534;48.784;9.190;2023-04-06T07:37:43;7.30;99.90
10964;DHT22;5534;48.784;9.190;2023-04-06T07:40:09;7.30;99.90
10964;DHT22;5534;48.784;9.190;2023-04-06T07:42:35;7.30;99.90
10964;DHT22;5534;48.784;9.190;2023-04-06T07:45:01;7.40;99.90
10964;DHT22;5534;48.784;9.190;2023-04-06T07:47:27;7.50;99.90
10964;DHT22;5534;48.784;9.190;2023-04-06T07:49:55;7.70;99.90
10964;DHT22;5534;48.784;9.190;2023-04-06T07:52:24;7.90;99.90
10964;DHT22;5534;48.784;9.190;2023-04-06T07:54:50;8.10;99.90
10964;DHT22;5534;48.784;9.190;2023-04-06T07:57:15;8.40;99.90
10964;DHT22;5534;48.784;9.190;2023-04-06T07:59:41;8.90;99.90
10964;DHT22;5534;48.784;9.190;2023-04-06T08:02:07;9.40;99.90
10964;DHT22;5534;48.784;9.190;2023-04-06T08:04:33;9.90;99.90
10964;DHT22;5534;48.784;9.190;2023-04-06T08:06:59;10.40;99.90
10964;DHT22;5534;48.784;9.190;2023-04-06T08:09:25;10.80;99.90
10964;DHT22;5534;48.784;9.190;2023-04-06T08:11:51;11.10;99.90
10964;DHT22;5534;48.784;9.190;2023-04-06T08:14:16;11.00;99.90
10964;DHT22;5534;48.784;9.190;2023-04-06T08:16:42;11.00;99.90
10964;DHT22;5534;48.784;9.190;2023-04-06T08:19:08;10.80;99.90
10964;DHT22;5534;48.784;9.190;2023-04-06T08:21:35;10.60;99.90
10964;DHT22;5534;48.784;9.190;2023-04-06T08:24:02;10.50;99.90
10964;DHT22;5534;48.784;9.190;2023-04-06T08:26:28;10.60;99.90
10964;DHT22;5534;48.784;9.190;2023-04-06T08:28:54;10.70;99.90
10964;DHT22;5534;48.784;9.190;2023-04-06T08:31:20;10.80;99.90
10964;DHT22;5534;48.784;9.190;2023-04-06T08:33:45;10.70;99.90
10964;DHT22;5534;48.784;9.190;2023-04-06T08:36:13;10.60;99.90
10964;DHT22;5534;48.784;9.190;2023-04-06T08:38:40;10.60;99.90
10964;DHT22;5534;48.784;9.190;2023-04-06T08:41:13;10.70;99.90
10964;DHT22;5534;48.784;9.190;2023-04-06T08:44:00;10.80;99.90
10964;DHT22;5534;48.784;9.190;2023-04-06T08:46:26;10.80;99.90
10964;DHT22;5534;48.784;9.190;2023-04-06T08:48:57;10.80;99.80
10964;DHT22;5534;48.784;9.190;2023-04-06T08:51:24;10.90;99.80
10964;DHT22;5534;48.784;9.190;2023-04-06T08:53:53;11.00;99.50
10964;DHT22;5534;48.784;9.190;2023-04-06T08:56:21;11.00;99.40
10964;DHT22;5534;48.784;9.190;2023-04-06T08:58:47;11.10;99.50
10964;DHT22;5534;48.784;9.190;2023-04-06T09:01:14;11.30;98.90
10964;DHT22;5534;48.784;9.190;2023-04-06T09:03:43;11.40;98.80
10964;DHT22;5534;48.784;9.190;2023-04-06T09:06:09;11.50;98.10
10964;DHT22;5534;48.784;9.190;2023-04-06T09:08:38;11.70;97.60
10964;DHT22;5534;48.784;9.190;2023-04-06T09:11:04;11.80;97.00
10964;DHT22;5534;48.784;9.190;2023-04-06T09:13:31;11.70;96.40
10964;DHT22;5534;48.784;9.190;2023-04-06T09:16:04;11.60;93.60
10964;DHT22;5534;48.784;9.190;2023-04-06T09:18:32;11.80;94.40
10964;DHT22;5534;48.784;9.190;2023-04-06T09:21:06;11.90;94.10
10964;DHT22;5534;48.784;9.190;2023-04-06T09:23:32;11.90;94.30
10964;DHT22;5534;48.784;9.190;2023-04-06T09:28:50;11.90;93.70
10964;DHT22;5534;48.784;9.190;2023-04-06T09:31:30;11.80;93.60
10964;DHT22;5534;48.784;9.190;2023-04-06T09:33:59;11.90;93.40
10964;DHT22;5534;48.784;9.190;2023-04-06T09:36:32;12.00;93.00
10964;DHT22;5534;48.784;9.190;2023-04-06T09:39:00;12.00;91.70
10964;DHT22;5534;48.784;9.190;2023-04-06T09:41:31;11.90;91.80
10964;DHT22;5534;48.784;9.190;2023-04-06T09:44:07;12.00;91.40
10964;DHT22;5534;48.784;9.190;2023-04-06T09:46:37;12.10;90.90
10964;DHT22;5534;48.784;9.190;2023-04-06T09:49:05;12.10;90.30
10964;DHT22;5534;48.784;9.190;2023-04-06T09:51:37;12.10;88.80
10964;DHT22;5534;48.784;9.190;2023-04-06T09:54:03;12.10;88.30
10964;DHT22;5534;48.784;9.190;2023-04-06T09:56:46;12.30;87.00
10964;DHT22;5534;48.784;9.190;2023-04-06T09:59:37;12.20;85.90
10964;DHT22;5534;48.784;9.190;2023-04-06T10:02:05;12.10;86.20
10964;DHT22;5534;48.784;9.190;2023-04-06T10:04:43;12.10;84.70
10964;DHT22;5534;48.784;9.190;2023-04-06T10:07:09;12.10;85.30
10964;DHT22;5534;48.784;9.190;2023-04-06T10:09:37;12.20;83.70
10964;DHT22;5534;48.784;9.190;2023-04-06T10:12:07;12.50;84.00
10964;DHT22;5534;48.784;9.190;2023-04-06T10:14:34;12.70;82.20
10964;DHT22;5534;48.784;9.190;2023-04-06T10:17:06;12.50;81.60
10964;DHT22;5534;48.784;9.190;2023-04-06T10:25:30;12.70;81.50
10964;DHT22;5534;48.784;9.190;2023-04-06T10:28:00;12.80;80.30
10964;DHT22;5534;48.784;9.190;2023-04-06T10:30:26;12.90;81.00
10964;DHT22;5534;48.784;9.190;2023-04-06T10:32:53;13.00;78.90
10964;DHT22;5534;48.784;9.190;2023-04-06T10:35:19;12.90;78.80
10964;DHT22;5534;48.784;9.190;2023-04-06T10:38:03;12.80;79.20
10964;DHT22;5534;48.784;9.190;2023-04-06T10:40:30;12.90;79.20
10964;DHT22;5534;48.784;9.190;2023-04-06T10:43:11;13.00;78.30
10964;DHT22;5534;48.784;9.190;2023-04-06T10:45:39;13.10;77.20
10964;DHT22;5534;48.784;9.190;2023-04-06T10:48:18;13.00;77.10
10964;DHT22;5534;48.784;9.190;2023-04-06T10:50:48;13.00;77.00
10964;DHT22;5534;48.784;9.190;2023-04-06T10:53:22;13.00;76.30
10964;DHT22;5534;48.784;9.190;2023-04-06T10:55:50;13.00;76.80
10964;DHT22;5534;48.784;9.190;2023-04-06T10:58:16;13.10;76.40
10964;DHT22;5534;48.784;9.190;2023-04-06T11:00:46;13.10;75.30
10964;DHT22;5534;48.784;9.190;2023-04-06T11:03:13;13.10;76.00
10964;DHT22;5534;48.784;9.190;2023-04-06T11:05:44;13.20;83.80
10964;DHT22;5534;48.784;9.190;2023-04-06T11:08:10;13.50;77.20
10964;DHT22;5534;48.784;9.190;2023-04-06T11:10:36;13.60;75.50
10964;DHT22;5534;48.784;9.190;2023-04-06T11:13:01;13.40;75.10
10964;DHT22;5534;48.784;9.190;2023-04-06T11:15:34;13.40;74.90
10964;DHT22;5534;48.784;9.190;2023-04-06T11:18:04;13.40;75.70
10964;DHT22;5534;48.784;9.190;2023-04-06T11:20:30;13.40;75.00
10964;DHT22;5534;48.784;9.190;2023-04-06T11:22:56;13.30;79.40
10964;DHT22;5534;48.784;9.190;2023-04-06T11:25:24;13.20;80.40
10964;DHT22;5534;48.784;9.190;2023-04-06T11:27:54;13.50;77.60
10964;DHT22;5534;48.784;9.190;2023-04-06T11:30:20;13.60;77.20
10964;DHT22;5534;48.784;9.190;2023-04-06T11:32:46;13.70;79.20
10964;DHT22;5534;48.784;9.190;2023-04-06T11:35:20;13.70;80.30
10964;DHT22;5534;48.784;9.190;2023-04-06T11:37:46;13.60;80.30
10964;DHT22;5534;48.784;9.190;2023-04-06T11:40:12;13.70;81.80
10964;DHT22;5534;48.784;9.190;2023-04-06T11:42:37;14.00;75.90
10964;DHT22;5534;48.784;9.190;2023-04-06T11:45:03;14.30;72.40
10964;DHT22;5534;48.784;9.190;2023-04-06T11:47:35;14.30;72.20
10964;DHT22;5534;48.784;9.190;2023-04-06T11:50:13;14.40;71.30
10964;DHT22;5534;48.784;9.190;2023-04-06T11:52:40;14.30;70.80
10964;DHT22;5534;48.784;9.190;2023-04-06T11:55:14;14.10;70.20
10964;DHT22;5534;48.784;9.190;2023-04-06T11:57:41;14.00;70.70
10964;DHT22;5534;48.784;9.190;2023-04-06T12:00:08;13.80;78.00
10964;DHT22;5534;48.784;9.190;2023-04-06T12:02:38;13.80;78.30
10964;DHT22;5534;48.784;9.190;2023-04-06T12:05:05;14.20;71.30
10964;DHT22;5534;48.784;9.190;2023-04-06T12:07:32;14.10;74.00
10964;DHT22;5534;48.784;9.190;2023-04-06T12:09:59;14.20;71.10
10964;DHT22;5534;48.784;9.190;2023-04-06T12:12:25;14.30;70.80
10964;DHT22;5534;48.784;9.190;2023-04-06T12:14:51;14.00;70.20
10964;DHT22;5534;48.784;9.190;2023-04-06T12:17:17;14.20;70.40
10964;DHT22;5534;48.784;9.190;2023-04-06T12:19:43;14.30;70.40
10964;DHT22;5534;48.784;9.190;2023-04-06T12:22:09;14.10;75.40
10964;DHT22;5534;48.784;9.190;2023-04-06T12:24:35;14.40;70.60
10964;DHT22;5534;48.784;9.190;2023-04-06T12:27:01;14.40;71.80
10964;DHT22;5534;48.784;9.190;2023-04-06T12:29:27;14.40;72.90
10964;DHT22;5534;48.784;9.190;2023-04-06T12:31:52;14.30;72.90
10964;DHT22;5534;48.784;9.190;2023-04-06T12:34:18;14.40;72.90
10964;DHT22;5534;48.784;9.190;2023-04-06T12:36:44;14.80;70.10
10964;DHT22;5534;48.784;9.190;2023-04-06T12:39:10;14.90;68.70
10964;DHT22;5534;48.784;9.190;2023-04-06T12:41:36;14.90;67.80
10964;DHT22;5534;48.784;9.190;2023-04-06T12:44:02;14.90;66.50
10964;DHT22;5534;48.784;9.190;2023-04-06T12:46:29;14.50;70.60
10964;DHT22;5534;48.784;9.190;2023-04-06T12:48:58;14.40;72.50
10964;DHT22;5534;48.784;9.190;2023-04-06T12:51:27;14.50;72.60
10964;DHT22;5534;48.784;9.190;2023-04-06T12:53:53;14.80;68.50
10964;DHT22;5534;48.784;9.190;2023-04-06T12:56:19;14.80;70.10
10964;DHT22;5534;48.784;9.190;2023-04-06T12:58:46;15.00;67.10
10964;DHT22;5534;48.784;9.190;2023-04-06T13:01:12;15.10;66.60
10964;DHT22;5534;48.784;9.190;2023-04-06T13:03:39;15.10;66.10
10964;DHT22;5534;48.784;9.190;2023-04-06T13:06:05;15.00;65.40
10964;DHT22;5534;48.784;9.190;2023-04-06T13:08:31;14.80;65.30
10964;DHT22;5534;48.784;9.190;2023-04-06T13:10:57;14.80;65.50
10964;DHT22;5534;48.784;9.190;2023-04-06T13:13:25;14.70;64.90
10964;DHT22;5534;48.784;9.190;2023-04-06T13:15:52;14.60;64.30
10964;DHT22;5534;48.784;9.190;2023-04-06T13:18:18;14.40;64.60
10964;DHT22;5534;48.784;9.190;2023-04-06T13:20:43;14.10;66.80
10964;DHT22;5534;48.784;9.190;2023-04-06T13:23:09;14.00;66.60
10964;DHT22;5534;48.784;9.190;2023-04-06T13:25:36;14.20;66.60
10964;DHT22;5534;48.784;9.190;2023-04-06T13:28:02;14.30;65.80
10964;DHT22;5534;48.784;9.190;2023-04-06T13:30:28;14.20;65.90
10964;DHT22;5534;48.784;9.190;2023-04-06T13:32:54;14.20;66.60
10964;DHT22;5534;48.784;9.190;2023-04-06T13:35:20;14.30;66.20
10964;DHT22;5534;48.784;9.190;2023-04-06T13:37:46;14.30;66.30
10964;DHT22;5534;48.784;9.190;2023-04-06T13:40:12;14.40;66.00
10964;DHT22;5534;48.784;9.190;2023-04-06T13:42:37;14.40;66.80
10964;DHT22;5534;48.784;9.190;2023-04-06T13:45:06;14.70;65.50
10964;DHT22;5534;48.784;9.190;2023-04-06T13:47:32;14.90;63.70
10964;DHT22;5534;48.784;9.190;2023-04-06T13:49:58;14.80;64.20
10964;DHT22;5534;48.784;9.190;2023-04-06T13:52:23;14.90;64.30
10964;DHT22;5534;48.784;9.190;2023-04-06T13:54:49;14.80;64.30
10964;DHT22;5534;48.784;9.190;2023-04-06T13:57:16;14.60;65.00
10964;DHT22;5534;48.784;9.190;2023-04-06T13:59:42;14.60;64.70
10964;DHT22;5534;48.784;9.190;2023-04-06T14:02:09;14.30;64.40
10964;DHT22;5534;48.784;9.190;2023-04-06T14:04:36;14.40;64.70
10964;DHT22;5534;48.784;9.190;2023-04-06T14:07:02;14.30;64.50
10964;DHT22;5534;48.784;9.190;2023-04-06T14:09:29;14.20;64.90
10964;DHT22;5534;48.784;9.190;2023-04-06T14:11:55;14.30;65.00
10964;DHT22;5534;48.784;9.190;2023-04-06T14:14:22;14.40;64.80
10964;DHT22;5534;48.784;9.190;2023-04-06T14:16:48;14.50;64.80
10964;DHT22;5534;48.784;9.190;2023-04-06T14:19:15;14.60;64.00
10964;DHT22;5534;48.784;9.190;2023-04-06T14:21:45;14.50;63.80
10964;DHT22;5534;48.784;9.190;2023-04-06T14:24:11;14.50;64.30
10964;DHT22;5534;48.784;9.190;2023-04-06T14:26:39;14.40;64.60
10964;DHT22;5534;48.784;9.190;2023-04-06T14:29:07;14.60;64.70
10964;DHT22;5534;48.784;9.190;2023-04-06T14:31:33;14.60;64.30
10964;DHT22;5534;48.784;9.190;2023-04-06T14:34:01;14.70;64.00
10964;DHT22;5534;48.784;9.190;2023-04-06T14:36:27;14.70;63.60
10964;DHT22;5534;48.784;9.190;2023-04-06T14:38:57;14.60;64.60
10964;DHT22;5534;48.784;9.190;2023-04-06T14:41:24;14.70;64.10
10964;DHT22;5534;48.784;9.190;2023-04-06T14:43:50;14.80;64.00
10964;DHT22;5534;48.784;9.190;2023-04-06T14:46:18;14.80;63.10
10964;DHT22;5534;48.784;9.190;2023-04-06T14:48:44;14.70;63.30
10964;DHT22;5534;48.784;9.190;2023-04-06T14:51:11;14.70;64.40
10964;DHT22;5534;48.784;9.190;2023-04-06T14:53:37;14.70;64.10
10964;DHT22;5534;48.784;9.190;2023-04-06T14:56:03;14.80;64.00
10964;DHT22;5534;48.784;9.190;2023-04-06T14:58:29;14.70;63.20
10964;DHT22;5534;48.784;9.190;2023-04-06T15:00:59;14.70;63.10
10964;DHT22;5534;48.784;9.190;2023-04-06T15:03:26;14.70;62.80
10964;DHT22;5534;48.784;9.190;2023-04-06T15:05:53;14.70;62.90
10964;DHT22;5534;48.784;9.190;2023-04-06T15:08:19;14.70;63.60
10964;DHT22;5534;48.784;9.190;2023-04-06T15:10:47;14.50;64.10
10964;DHT22;5534;48.784;9.190;2023-04-06T15:13:13;14.60;63.70
10964;DHT22;5534;48.784;9.190;2023-04-06T15:15:38;14.50;64.30
10964;DHT22;5534;48.784;9.190;2023-04-06T15:18:05;14.60;63.90
10964;DHT22;5534;48.784;9.190;2023-04-06T15:20:32;14.40;64.10
10964;DHT22;5534;48.784;9.190;2023-04-06T15:22:58;14.40;64.40
10964;DHT22;5534;48.784;9.190;2023-04-06T15:25:23;14.50;64.50
10964;DHT22;5534;48.784;9.190;2023-04-06T15:27:49;14.50;64.30
10964;DHT22;5534;48.784;9.190;2023-04-06T15:30:15;14.40;64.90
10964;DHT22;5534;48.784;9.190;2023-04-06T15:32:58;14.30;65.20
10964;DHT22;5534;48.784;9.190;2023-04-06T15:35:29;14.30;65.10
10964;DHT22;5534;48.784;9.190;2023-04-06T15:37:58;14.20;65.40
10964;DHT22;5534;48.784;9.190;2023-04-06T15:40:24;14.20;65.70
10964;DHT22;5534;48.784;9.190;2023-04-06T15:42:50;14.30;66.00
10964;DHT22;5534;48.784;9.190;2023-04-06T15:45:16;14.40;65.50
10964;DHT22;5534;48.784;9.190;2023-04-06T15:47:43;14.50;64.70
10964;DHT22;5534;48.784;9.190;2023-04-06T15:50:10;14.40;65.40
10964;DHT22;5534;48.784;9.190;2023-04-06T15:52:38;14.30;65.20
10964;DHT22;5534;48.784;9.190;2023-04-06T15:55:05;14.30;65.60
10964;DHT22;5534;48.784;9.190;2023-04-06T15:57:32;14.30;64.30
10964;DHT22;5534;48.784;9.190;2023-04-06T15:59:58;14.20;64.90
10964;DHT22;5534;48.784;9.190;2023-04-06T16:02:25;14.20;65.30